sensor_id;sensor_type;location;lat;lon;timestamp;temperature;humidity
420;DHT22;42600;54.408;13.016;2022-07-24T00:00:59;16.80;84.60
420;DHT22;42600;54.408;13.016;2022-07-24T00:03:26;16.80;84.50
420;DHT22;42600;54.408;13.016;2022-07-24T00:05:52;16.80;84.60
420;DHT22;42600;54.408;13.016;2022-07-24T00:08:19;16.80;84.50
420;DHT22;42600;54.408;13.016;2022-07-24T00:10:46;16.80;84.60
420;DHT22;42600;54.408;13.016;2022-07-24T00:13:13;16.80;84.60
420;DHT22;42600;54.408;13.016;2022-07-24T00:15:41;16.80;84.80
420;DHT22;42600;54.408;13.016;2022-07-24T00:18:08;16.70;84.70
420;DHT22;42600;54.408;13.016;2022-07-24T00:20:34;16.70;84.60
420;DHT22;42600;54.408;13.016;2022-07-24T00:23:01;16.70;84.50
420;DHT22;42600;54.408;13.016;2022-07-24T00:25:27;16.70;84.40
420;DHT22;42600;54.408;13.016;2022-07-24T00:27:54;16.70;84.30
420;DHT22;42600;54.408;13.016;2022-07-24T00:30:21;16.70;84.50
420;DHT22;42600;54.408;13.016;2022-07-24T00:32:49;16.70;84.50
420;DHT22;42600;54.408;13.016;2022-07-24T00:35:16;16.70;84.60
420;DHT22;42600;54.408;13.016;2022-07-24T00:37:43;16.70;84.50
420;DHT22;42600;54.408;13.016;2022-07-24T00:40:11;16.70;84.80
420;DHT22;42600;54.408;13.016;2022-07-24T00:42:38;16.70;84.50
420;DHT22;42600;54.408;13.016;2022-07-24T00:45:05;16.70;84.50
420;DHT22;42600;54.408;13.016;2022-07-24T00:47:32;16.70;84.40
420;DHT22;42600;54.408;13.016;2022-07-24T00:50:00;16.70;84.40
420;DHT22;42600;54.408;13.016;2022-07-24T00:52:29;16.60;84.50
420;DHT22;42600;54.408;13.016;2022-07-24T00:54:56;16.60;84.40
420;DHT22;42600;54.408;13.016;2022-07-24T00:57:23;16.60;84.50
420;DHT22;42600;54.408;13.016;2022-07-24T00:59:50;16.70;84.40
420;DHT22;42600;54.408;13.016;2022-07-24T01:02:16;16.60;84.30
420;DHT22;42600;54.408;13.016;2022-07-24T01:04:43;16.60;84.50
420;DHT22;42600;54.408;13.016;2022-07-24T01:07:11;16.60;84.50
420;DHT22;42600;54.408;13.016;2022-07-24T01:09:38;16.60;84.40
420;DHT22;42600;54.408;13.016;2022-07-24T01:12:05;16.60;84.40
420;DHT22;42600;54.408;13.016;2022-07-24T01:14:33;16.60;84.40
420;DHT22;42600;54.408;13.016;2022-07-24T01:17:00;16.60;84.50
420;DHT22;42600;54.408;13.016;2022-07-24T01:19:27;16.60;84.60
420;DHT22;42600;54.408;13.016;2022-07-24T01:21:55;16.60;84.50
420;DHT22;42600;54.408;13.016;2022-07-24T01:24:22;16.60;84.30
420;DHT22;42600;54.408;13.016;2022-07-24T01:26:49;16.60;84.40
420;DHT22;42600;54.408;13.016;2022-07-24T01:29:16;16.60;84.20
420;DHT22;42600;54.408;13.016;2022-07-24T01:31:43;16.60;84.40
420;DHT22;42600;54.408;13.016;2022-07-24T01:34:10;16.60;84.20
420;DHT22;42600;54.408;13.016;2022-07-24T01:36:37;16.50;84.40
420;DHT22;42600;54.408;13.016;2022-07-24T01:39:05;16.50;84.50
420;DHT22;42600;54.408;13.016;2022-07-24T01:41:32;16.50;84.50
420;DHT22;42600;54.408;13.016;2022-07-24T01:43:59;16.50;84.30
420;DHT22;42600;54.408;13.016;2022-07-24T01:46:25;16.50;84.10
420;DHT22;42600;54.408;13.016;2022-07-24T01:48:52;16.50;84.10
420;DHT22;42600;54.408;13.016;2022-07-24T01:51:19;16.50;84.10
420;DHT22;42600;54.408;13.016;2022-07-24T01:53:46;16.50;84.10
420;DHT22;42600;54.408;13.016;2022-07-24T01:56:14;16.50;84.10
420;DHT22;42600;54.408;13.016;2022-07-24T01:58:41;16.50;84.00
420;DHT22;42600;54.408;13.016;2022-07-24T02:01:07;16.50;84.00
420;DHT22;42600;54.408;13.016;2022-07-24T02:03:34;16.50;84.10
420;DHT22;42600;54.408;13.016;2022-07-24T02:06:01;16.50;84.10
420;DHT22;42600;54.408;13.016;2022-07-24T02:08:27;16.50;84.00
420;DHT22;42600;54.408;13.016;2022-07-24T02:10:54;16.50;84.00
420;DHT22;42600;54.408;13.016;2022-07-24T02:13:22;16.50;83.90
420;DHT22;42600;54.408;13.016;2022-07-24T02:15:51;16.40;83.90
420;DHT22;42600;54.408;13.016;2022-07-24T02:18:18;16.40;83.80
420;DHT22;42600;54.408;13.016;2022-07-24T02:20:44;16.40;83.90
420;DHT22;42600;54.408;13.016;2022-07-24T02:23:11;16.40;83.90
420;DHT22;42600;54.408;13.016;2022-07-24T02:25:43;16.30;84.30
420;DHT22;42600;54.408;13.016;2022-07-24T02:28:10;16.40;83.80
420;DHT22;42600;54.408;13.016;2022-07-24T02:30:38;16.40;83.80
420;DHT22;42600;54.408;13.016;2022-07-24T02:33:05;16.40;83.90
420;DHT22;42600;54.408;13.016;2022-07-24T02:35:31;16.30;83.90
420;DHT22;42600;54.408;13.016;2022-07-24T02:37:58;16.30;83.90
420;DHT22;42600;54.408;13.016;2022-07-24T02:40:25;16.30;83.80
420;DHT22;42600;54.408;13.016;2022-07-24T02:42:52;16.40;83.60
420;DHT22;42600;54.408;13.016;2022-07-24T02:45:19;16.30;83.70
420;DHT22;42600;54.408;13.016;2022-07-24T02:47:48;16.30;83.90
420;DHT22;42600;54.408;13.016;2022-07-24T02:50:16;16.30;83.90
420;DHT22;42600;54.408;13.016;2022-07-24T02:52:43;16.30;83.90
420;DHT22;42600;54.408;13.016;2022-07-24T02:55:10;16.30;83.80
420;DHT22;42600;54.408;13.016;2022-07-24T02:57:36;16.30;83.80
420;DHT22;42600;54.408;13.016;2022-07-24T03:00:04;16.30;83.60
420;DHT22;42600;54.408;13.016;2022-07-24T03:02:32;16.30;83.80
420;DHT22;42600;54.408;13.016;2022-07-24T03:05:01;16.20;83.70
420;DHT22;42600;54.408;13.016;2022-07-24T03:07:27;16.30;83.70
420;DHT22;42600;54.408;13.016;2022-07-24T03:09:54;16.20;83.70
420;DHT22;42600;54.408;13.016;2022-07-24T03:12:21;16.30;83.60
420;DHT22;42600;54.408;13.016;2022-07-24T03:14:48;16.30;83.40
420;DHT22;42600;54.408;13.016;2022-07-24T03:17:15;16.20;83.30
420;DHT22;42600;54.408;13.016;2022-07-24T03:19:41;16.20;83.50
420;DHT22;42600;54.408;13.016;2022-07-24T03:22:09;16.20;83.40
420;DHT22;42600;54.408;13.016;2022-07-24T03:24:36;16.20;83.40
420;DHT22;42600;54.408;13.016;2022-07-24T03:27:03;16.20;83.30
420;DHT22;42600;54.408;13.016;2022-07-24T03:29:29;16.20;83.40
420;DHT22;42600;54.408;13.016;2022-07-24T03:31:56;16.20;83.50
420;DHT22;42600;54.408;13.016;2022-07-24T03:34:23;16.20;83.50
420;DHT22;42600;54.408;13.016;2022-07-24T03:36:49;16.20;83.50
420;DHT22;42600;54.408;13.016;2022-07-24T03:39:18;16.20;83.60
420;DHT22;42600;54.408;13.016;2022-07-24T03:41:44;16.20;83.70
420;DHT22;42600;54.408;13.016;2022-07-24T03:44:11;16.20;83.50
420;DHT22;42600;54.408;13.016;2022-07-24T03:46:38;16.20;83.90
420;DHT22;42600;54.408;13.016;2022-07-24T03:49:04;16.10;83.80
420;DHT22;42600;54.408;13.016;2022-07-24T03:51:31;16.10;83.80
420;DHT22;42600;54.408;13.016;2022-07-24T03:54:00;16.20;83.70
420;DHT22;42600;54.408;13.016;2022-07-24T03:56:28;16.20;83.80
420;DHT22;42600;54.408;13.016;2022-07-24T03:58:55;16.20;83.90
420;DHT22;42600;54.408;13.016;2022-07-24T04:01:22;16.20;84.10
420;DHT22;42600;54.408;13.016;2022-07-24T04:03:49;16.20;84.10
420;DHT22;42600;54.408;13.016;2022-07-24T04:06:15;16.10;84.30
420;DHT22;42600;54.408;13.016;2022-07-24T04:08:42;16.20;84.00
420;DHT22;42600;54.408;13.016;2022-07-24T04:11:10;16.10;84.00
420;DHT22;42600;54.408;13.016;2022-07-24T04:13:38;16.20;83.90
420;DHT22;42600;54.408;13.016;2022-07-24T04:16:05;16.10;83.90
420;DHT22;42600;54.408;13.016;2022-07-24T04:18:32;16.10;84.00
420;DHT22;42600;54.408;13.016;2022-07-24T04:20:58;16.20;83.80
420;DHT22;42600;54.408;13.016;2022-07-24T04:23:25;16.20;83.70
420;DHT22;42600;54.408;13.016;2022-07-24T04:25:52;16.20;83.60
420;DHT22;42600;54.408;13.016;2022-07-24T04:28:18;16.20;83.80
420;DHT22;42600;54.408;13.016;2022-07-24T04:30:46;16.10;84.10
420;DHT22;42600;54.408;13.016;2022-07-24T04:33:13;16.10;84.00
420;DHT22;42600;54.408;13.016;2022-07-24T04:35:40;16.20;83.70
420;DHT22;42600;54.408;13.016;2022-07-24T04:38:07;16.20;84.00
420;DHT22;42600;54.408;13.016;2022-07-24T04:40:33;16.20;83.80
420;DHT22;42600;54.408;13.016;2022-07-24T04:43:00;16.10;84.00
420;DHT22;42600;54.408;13.016;2022-07-24T04:45:27;16.10;83.90
420;DHT22;42600;54.408;13.016;2022-07-24T04:47:55;16.20;83.90
420;DHT22;42600;54.408;13.016;2022-07-24T04:50:22;16.20;84.10
420;DHT22;42600;54.408;13.016;2022-07-24T04:52:48;16.20;83.80
420;DHT22;42600;54.408;13.016;2022-07-24T04:55:15;16.20;83.80
420;DHT22;42600;54.408;13.016;2022-07-24T04:57:42;16.20;84.00
420;DHT22;42600;54.408;13.016;2022-07-24T05:00:11;16.20;84.00
420;DHT22;42600;54.408;13.016;2022-07-24T05:02:39;16.20;83.90
420;DHT22;42600;54.408;13.016;2022-07-24T05:05:07;16.20;84.00
420;DHT22;42600;54.408;13.016;2022-07-24T05:07:34;16.20;84.00
420;DHT22;42600;54.408;13.016;2022-07-24T05:10:01;16.20;83.80
420;DHT22;42600;54.408;13.016;2022-07-24T05:12:28;16.20;83.70
420;DHT22;42600;54.408;13.016;2022-07-24T05:14:54;16.20;83.70
420;DHT22;42600;54.408;13.016;2022-07-24T05:17:21;16.20;83.70
420;DHT22;42600;54.408;13.016;2022-07-24T05:19:48;16.20;83.50
420;DHT22;42600;54.408;13.016;2022-07-24T05:22:16;16.20;83.40
420;DHT22;42600;54.408;13.016;2022-07-24T05:24:42;16.20;83.30
420;DHT22;42600;54.408;13.016;2022-07-24T05:27:09;16.20;83.50
420;DHT22;42600;54.408;13.016;2022-07-24T05:29:36;16.20;83.70
420;DHT22;42600;54.408;13.016;2022-07-24T05:32:03;16.20;83.80
420;DHT22;42600;54.408;13.016;2022-07-24T05:34:30;16.30;83.30
420;DHT22;42600;54.408;13.016;2022-07-24T05:36:57;16.30;83.30
420;DHT22;42600;54.408;13.016;2022-07-24T05:39:25;16.30;83.50
420;DHT22;42600;54.408;13.016;2022-07-24T05:41:52;16.40;83.20
420;DHT22;42600;54.408;13.016;2022-07-24T05:44:18;16.40;83.20
420;DHT22;42600;54.408;13.016;2022-07-24T05:46:45;16.40;83.00
420;DHT22;42600;54.408;13.016;2022-07-24T05:49:12;16.50;82.90
420;DHT22;42600;54.408;13.016;2022-07-24T05:51:39;16.60;82.70
420;DHT22;42600;54.408;13.016;2022-07-24T05:54:06;16.60;82.80
420;DHT22;42600;54.408;13.016;2022-07-24T05:56:34;16.70;82.50
420;DHT22;42600;54.408;13.016;2022-07-24T05:59:00;16.90;81.80
420;DHT22;42600;54.408;13.016;2022-07-24T06:01:27;17.00;81.90
420;DHT22;42600;54.408;13.016;2022-07-24T06:03:54;17.20;81.60
420;DHT22;42600;54.408;13.016;2022-07-24T06:06:20;17.40;81.10
420;DHT22;42600;54.408;13.016;2022-07-24T06:08:47;17.50;81.00
420;DHT22;42600;54.408;13.016;2022-07-24T06:11:14;17.70;80.40
420;DHT22;42600;54.408;13.016;2022-07-24T06:13:42;17.80;79.50
420;DHT22;42600;54.408;13.016;2022-07-24T06:16:08;18.00;78.90
420;DHT22;42600;54.408;13.016;2022-07-24T06:18:35;18.20;78.70
420;DHT22;42600;54.408;13.016;2022-07-24T06:21:02;18.40;78.00
420;DHT22;42600;54.408;13.016;2022-07-24T06:23:28;18.60;77.80
420;DHT22;42600;54.408;13.016;2022-07-24T06:25:55;18.50;77.80
420;DHT22;42600;54.408;13.016;2022-07-24T06:28:22;18.50;77.50
420;DHT22;42600;54.408;13.016;2022-07-24T06:30:50;18.50;77.30
420;DHT22;42600;54.408;13.016;2022-07-24T06:33:16;18.70;77.20
420;DHT22;42600;54.408;13.016;2022-07-24T06:35:43;18.80;77.10
420;DHT22;42600;54.408;13.016;2022-07-24T06:38:10;18.90;77.00
420;DHT22;42600;54.408;13.016;2022-07-24T06:40:37;18.90;76.80
420;DHT22;42600;54.408;13.016;2022-07-24T06:43:04;19.10;76.60
420;DHT22;42600;54.408;13.016;2022-07-24T06:45:31;19.10;76.50
420;DHT22;42600;54.408;13.016;2022-07-24T06:48:00;19.20;76.20
420;DHT22;42600;54.408;13.016;2022-07-24T06:50:27;19.30;75.90
420;DHT22;42600;54.408;13.016;2022-07-24T06:52:54;19.30;76.20
420;DHT22;42600;54.408;13.016;2022-07-24T06:55:21;19.40;75.90
420;DHT22;42600;54.408;13.016;2022-07-24T06:57:48;19.40;76.20
420;DHT22;42600;54.408;13.016;2022-07-24T07:00:15;19.50;75.60
420;DHT22;42600;54.408;13.016;2022-07-24T07:02:42;19.50;75.10
420;DHT22;42600;54.408;13.016;2022-07-24T07:05:10;19.60;75.80
420;DHT22;42600;54.408;13.016;2022-07-24T07:07:37;19.60;75.60
420;DHT22;42600;54.408;13.016;2022-07-24T07:10:05;19.70;75.50
420;DHT22;42600;54.408;13.016;2022-07-24T07:12:32;19.80;75.40
420;DHT22;42600;54.408;13.016;2022-07-24T07:14:59;20.00;75.40
420;DHT22;42600;54.408;13.016;2022-07-24T07:17:25;19.90;75.20
420;DHT22;42600;54.408;13.016;2022-07-24T07:19:52;20.10;75.00
420;DHT22;42600;54.408;13.016;2022-07-24T07:22:20;20.10;75.00
420;DHT22;42600;54.408;13.016;2022-07-24T07:24:47;20.10;74.60
420;DHT22;42600;54.408;13.016;2022-07-24T07:27:14;20.20;74.40
420;DHT22;42600;54.408;13.016;2022-07-24T07:29:40;20.10;74.40
420;DHT22;42600;54.408;13.016;2022-07-24T07:32:07;20.20;74.30
420;DHT22;42600;54.408;13.016;2022-07-24T07:34:34;20.40;73.60
420;DHT22;42600;54.408;13.016;2022-07-24T07:37:00;20.50;74.00
420;DHT22;42600;54.408;13.016;2022-07-24T07:39:28;20.60;74.10
420;DHT22;42600;54.408;13.016;2022-07-24T07:41:55;20.70;73.70
420;DHT22;42600;54.408;13.016;2022-07-24T07:44:21;20.70;73.70
420;DHT22;42600;54.408;13.016;2022-07-24T07:46:48;20.80;73.70
420;DHT22;42600;54.408;13.016;2022-07-24T07:49:15;20.90;73.30
420;DHT22;42600;54.408;13.016;2022-07-24T07:51:42;21.00;73.20
420;DHT22;42600;54.408;13.016;2022-07-24T07:54:12;21.10;72.90
420;DHT22;42600;54.408;13.016;2022-07-24T07:56:40;21.00;72.70
420;DHT22;42600;54.408;13.016;2022-07-24T07:59:07;21.20;72.70
420;DHT22;42600;54.408;13.016;2022-07-24T08:01:34;21.20;72.50
420;DHT22;42600;54.408;13.016;2022-07-24T08:04:01;21.10;72.00
420;DHT22;42600;54.408;13.016;2022-07-24T08:06:28;21.20;72.00
420;DHT22;42600;54.408;13.016;2022-07-24T08:08:54;21.40;71.70
420;DHT22;42600;54.408;13.016;2022-07-24T08:11:21;21.50;72.20
420;DHT22;42600;54.408;13.016;2022-07-24T08:13:49;21.50;71.90
420;DHT22;42600;54.408;13.016;2022-07-24T08:16:16;21.50;71.00
420;DHT22;42600;54.408;13.016;2022-07-24T08:18:42;21.50;71.30
420;DHT22;42600;54.408;13.016;2022-07-24T08:21:09;21.60;71.00
420;DHT22;42600;54.408;13.016;2022-07-24T08:23:35;21.60;70.90
420;DHT22;42600;54.408;13.016;2022-07-24T08:26:02;21.70;70.80
420;DHT22;42600;54.408;13.016;2022-07-24T08:28:29;21.80;71.20
420;DHT22;42600;54.408;13.016;2022-07-24T08:30:57;21.90;70.70
420;DHT22;42600;54.408;13.016;2022-07-24T08:33:23;22.00;70.50
420;DHT22;42600;54.408;13.016;2022-07-24T08:35:50;22.00;70.60
420;DHT22;42600;54.408;13.016;2022-07-24T08:38:17;22.10;70.20
420;DHT22;42600;54.408;13.016;2022-07-24T08:40:45;22.10;70.50
420;DHT22;42600;54.408;13.016;2022-07-24T08:43:12;22.20;70.50
420;DHT22;42600;54.408;13.016;2022-07-24T08:45:40;22.20;70.10
420;DHT22;42600;54.408;13.016;2022-07-24T08:48:10;22.20;69.70
420;DHT22;42600;54.408;13.016;2022-07-24T08:50:39;22.20;69.80
420;DHT22;42600;54.408;13.016;2022-07-24T08:53:06;22.40;69.50
420;DHT22;42600;54.408;13.016;2022-07-24T08:55:33;22.50;69.40
420;DHT22;42600;54.408;13.016;2022-07-24T08:58:01;22.50;69.00
420;DHT22;42600;54.408;13.016;2022-07-24T09:00:30;22.60;69.30
420;DHT22;42600;54.408;13.016;2022-07-24T09:02:57;22.60;69.50
420;DHT22;42600;54.408;13.016;2022-07-24T09:05:26;22.60;69.20
420;DHT22;42600;54.408;13.016;2022-07-24T09:08:06;22.70;69.10
420;DHT22;42600;54.408;13.016;2022-07-24T09:10:33;22.80;68.90
420;DHT22;42600;54.408;13.016;2022-07-24T09:13:12;22.80;68.90
420;DHT22;42600;54.408;13.016;2022-07-24T09:15:44;22.90;69.10
420;DHT22;42600;54.408;13.016;2022-07-24T09:18:25;23.00;68.70
420;DHT22;42600;54.408;13.016;2022-07-24T09:20:53;23.10;68.90
420;DHT22;42600;54.408;13.016;2022-07-24T09:23:20;23.20;67.90
420;DHT22;42600;54.408;13.016;2022-07-24T09:25:50;23.20;68.60
420;DHT22;42600;54.408;13.016;2022-07-24T09:28:18;23.20;68.00
420;DHT22;42600;54.408;13.016;2022-07-24T09:30:46;23.30;68.60
420;DHT22;42600;54.408;13.016;2022-07-24T09:33:15;23.40;67.90
420;DHT22;42600;54.408;13.016;2022-07-24T09:35:44;23.30;67.70
420;DHT22;42600;54.408;13.016;2022-07-24T09:38:13;23.30;68.30
420;DHT22;42600;54.408;13.016;2022-07-24T09:40:42;23.40;68.00
420;DHT22;42600;54.408;13.016;2022-07-24T09:43:14;23.30;69.00
420;DHT22;42600;54.408;13.016;2022-07-24T09:45:52;23.60;68.60
420;DHT22;42600;54.408;13.016;2022-07-24T09:48:21;23.50;68.50
420;DHT22;42600;54.408;13.016;2022-07-24T09:50:52;23.70;69.80
420;DHT22;42600;54.408;13.016;2022-07-24T09:53:22;23.60;67.90
420;DHT22;42600;54.408;13.016;2022-07-24T09:55:57;23.10;69.30
420;DHT22;42600;54.408;13.016;2022-07-24T09:58:24;23.20;69.50
420;DHT22;42600;54.408;13.016;2022-07-24T10:00:54;23.30;70.40
420;DHT22;42600;54.408;13.016;2022-07-24T10:03:24;23.30;69.30
420;DHT22;42600;54.408;13.016;2022-07-24T10:05:54;23.20;69.70
420;DHT22;42600;54.408;13.016;2022-07-24T10:08:23;23.20;69.00
420;DHT22;42600;54.408;13.016;2022-07-24T10:10:50;23.50;69.80
420;DHT22;42600;54.408;13.016;2022-07-24T10:13:17;23.60;69.70
420;DHT22;42600;54.408;13.016;2022-07-24T10:15:51;24.00;69.50
420;DHT22;42600;54.408;13.016;2022-07-24T10:18:19;24.20;69.50
420;DHT22;42600;54.408;13.016;2022-07-24T10:20:48;24.30;68.60
420;DHT22;42600;54.408;13.016;2022-07-24T10:23:25;24.00;67.30
420;DHT22;42600;54.408;13.016;2022-07-24T10:25:56;24.30;70.20
420;DHT22;42600;54.408;13.016;2022-07-24T10:28:39;24.10;67.90
420;DHT22;42600;54.408;13.016;2022-07-24T10:31:07;23.80;69.10
420;DHT22;42600;54.408;13.016;2022-07-24T10:33:36;23.40;70.00
420;DHT22;42600;54.408;13.016;2022-07-24T10:36:09;23.40;70.20
420;DHT22;42600;54.408;13.016;2022-07-24T10:38:43;23.70;69.50
420;DHT22;42600;54.408;13.016;2022-07-24T10:41:15;23.50;68.80
420;DHT22;42600;54.408;13.016;2022-07-24T10:44:11;23.70;69.30
420;DHT22;42600;54.408;13.016;2022-07-24T10:47:00;23.50;69.20
420;DHT22;42600;54.408;13.016;2022-07-24T10:49:34;23.70;70.60
420;DHT22;42600;54.408;13.016;2022-07-24T10:52:01;24.00;69.30
420;DHT22;42600;54.408;13.016;2022-07-24T10:54:29;23.80;68.30
420;DHT22;42600;54.408;13.016;2022-07-24T10:56:55;23.40;69.70
420;DHT22;42600;54.408;13.016;2022-07-24T10:59:33;23.00;70.90
420;DHT22;42600;54.408;13.016;2022-07-24T11:02:24;23.50;71.10
420;DHT22;42600;54.408;13.016;2022-07-24T11:05:22;23.50;70.20
420;DHT22;42600;54.408;13.016;2022-07-24T11:08:27;23.50;71.10
420;DHT22;42600;54.408;13.016;2022-07-24T11:11:04;23.60;73.10
420;DHT22;42600;54.408;13.016;2022-07-24T11:13:45;23.90;69.30
420;DHT22;42600;54.408;13.016;2022-07-24T11:16:24;23.60;70.60
420;DHT22;42600;54.408;13.016;2022-07-24T11:19:24;23.60;71.20
420;DHT22;42600;54.408;13.016;2022-07-24T11:22:02;23.40;71.20
420;DHT22;42600;54.408;13.016;2022-07-24T11:24:29;23.00;71.10
420;DHT22;42600;54.408;13.016;2022-07-24T11:26:58;22.90;71.70
420;DHT22;42600;54.408;13.016;2022-07-24T11:29:27;23.00;71.80
420;DHT22;42600;54.408;13.016;2022-07-24T11:31:59;23.00;70.30
420;DHT22;42600;54.408;13.016;2022-07-24T11:34:28;23.10;69.30
420;DHT22;42600;54.408;13.016;2022-07-24T11:36:56;23.40;69.30
420;DHT22;42600;54.408;13.016;2022-07-24T11:39:27;23.30;70.00
420;DHT22;42600;54.408;13.016;2022-07-24T11:41:57;23.70;70.50
420;DHT22;42600;54.408;13.016;2022-07-24T11:44:26;23.20;68.20
420;DHT22;42600;54.408;13.016;2022-07-24T11:46:54;23.10;70.20
420;DHT22;42600;54.408;13.016;2022-07-24T11:49:22;23.20;68.80
420;DHT22;42600;54.408;13.016;2022-07-24T11:51:50;23.40;70.70
420;DHT22;42600;54.408;13.016;2022-07-24T11:54:21;23.70;69.10
420;DHT22;42600;54.408;13.016;2022-07-24T11:56:48;23.70;67.20
420;DHT22;42600;54.408;13.016;2022-07-24T11:59:24;23.90;66.30
420;DHT22;42600;54.408;13.016;2022-07-24T12:01:54;24.30;66.80
420;DHT22;42600;54.408;13.016;2022-07-24T12:04:21;24.10;68.90
420;DHT22;42600;54.408;13.016;2022-07-24T12:06:48;24.00;67.00
420;DHT22;42600;54.408;13.016;2022-07-24T12:09:15;23.90;66.70
420;DHT22;42600;54.408;13.016;2022-07-24T12:11:41;24.50;69.60
420;DHT22;42600;54.408;13.016;2022-07-24T12:14:13;24.50;66.70
420;DHT22;42600;54.408;13.016;2022-07-24T12:16:41;24.50;66.40
420;DHT22;42600;54.408;13.016;2022-07-24T12:19:15;24.10;66.30
420;DHT22;42600;54.408;13.016;2022-07-24T12:21:43;24.10;67.40
420;DHT22;42600;54.408;13.016;2022-07-24T12:24:11;24.10;69.00
420;DHT22;42600;54.408;13.016;2022-07-24T12:26:51;24.10;67.70
420;DHT22;42600;54.408;13.016;2022-07-24T12:29:19;24.40;67.20
420;DHT22;42600;54.408;13.016;2022-07-24T12:31:47;24.70;67.10
420;DHT22;42600;54.408;13.016;2022-07-24T12:34:14;24.40;66.40
420;DHT22;42600;54.408;13.016;2022-07-24T12:36:41;24.30;66.90
420;DHT22;42600;54.408;13.016;2022-07-24T12:39:11;24.10;70.60
420;DHT22;42600;54.408;13.016;2022-07-24T12:41:43;24.00;70.00
420;DHT22;42600;54.408;13.016;2022-07-24T12:44:10;23.70;69.80
420;DHT22;42600;54.408;13.016;2022-07-24T12:46:38;23.40;71.90
420;DHT22;42600;54.408;13.016;2022-07-24T12:49:08;23.60;73.20
420;DHT22;42600;54.408;13.016;2022-07-24T12:51:48;23.90;72.20
420;DHT22;42600;54.408;13.016;2022-07-24T12:54:17;24.10;71.90
420;DHT22;42600;54.408;13.016;2022-07-24T12:56:44;23.70;70.50
420;DHT22;42600;54.408;13.016;2022-07-24T12:59:22;23.50;71.80
420;DHT22;42600;54.408;13.016;2022-07-24T13:01:50;23.60;72.40
420;DHT22;42600;54.408;13.016;2022-07-24T13:04:20;23.50;72.20
420;DHT22;42600;54.408;13.016;2022-07-24T13:06:48;23.10;73.10
420;DHT22;42600;54.408;13.016;2022-07-24T13:09:16;23.20;73.90
420;DHT22;42600;54.408;13.016;2022-07-24T13:11:44;23.40;74.90
420;DHT22;42600;54.408;13.016;2022-07-24T13:14:13;23.40;73.80
420;DHT22;42600;54.408;13.016;2022-07-24T13:16:41;23.30;73.70
420;DHT22;42600;54.408;13.016;2022-07-24T13:19:08;23.10;75.80
420;DHT22;42600;54.408;13.016;2022-07-24T13:21:37;23.50;75.60
420;DHT22;42600;54.408;13.016;2022-07-24T13:24:06;23.50;75.20
420;DHT22;42600;54.408;13.016;2022-07-24T13:26:33;23.50;75.50
420;DHT22;42600;54.408;13.016;2022-07-24T13:29:01;23.50;77.50
420;DHT22;42600;54.408;13.016;2022-07-24T13:31:28;23.20;76.70
420;DHT22;42600;54.408;13.016;2022-07-24T13:33:54;23.30;76.20
420;DHT22;42600;54.408;13.016;2022-07-24T13:36:21;23.40;75.10
420;DHT22;42600;54.408;13.016;2022-07-24T13:38:49;23.00;76.10
420;DHT22;42600;54.408;13.016;2022-07-24T13:41:16;22.90;77.40
420;DHT22;42600;54.408;13.016;2022-07-24T13:43:44;23.10;75.80
420;DHT22;42600;54.408;13.016;2022-07-24T13:46:11;23.20;73.90
420;DHT22;42600;54.408;13.016;2022-07-24T13:48:39;23.40;75.20
420;DHT22;42600;54.408;13.016;2022-07-24T13:51:05;23.40;72.90
420;DHT22;42600;54.408;13.016;2022-07-24T13:53:32;23.40;74.40
420;DHT22;42600;54.408;13.016;2022-07-24T13:56:00;23.40;74.70
420;DHT22;42600;54.408;13.016;2022-07-24T13:58:27;23.50;73.80
420;DHT22;42600;54.408;13.016;2022-07-24T14:00:54;23.50;72.50
420;DHT22;42600;54.408;13.016;2022-07-24T14:03:20;23.40;73.20
420;DHT22;42600;54.408;13.016;2022-07-24T14:05:47;23.50;75.20
420;DHT22;42600;54.408;13.016;2022-07-24T14:08:14;23.50;74.50
420;DHT22;42600;54.408;13.016;2022-07-24T14:10:40;23.60;73.80
420;DHT22;42600;54.408;13.016;2022-07-24T14:13:08;23.60;72.60
420;DHT22;42600;54.408;13.016;2022-07-24T14:15:36;23.60;72.80
420;DHT22;42600;54.408;13.016;2022-07-24T14:18:03;23.60;73.30
420;DHT22;42600;54.408;13.016;2022-07-24T14:20:30;23.60;71.30
420;DHT22;42600;54.408;13.016;2022-07-24T14:22:57;23.40;71.90
420;DHT22;42600;54.408;13.016;2022-07-24T14:25:23;23.50;72.40
420;DHT22;42600;54.408;13.016;2022-07-24T14:27:50;23.40;73.10
420;DHT22;42600;54.408;13.016;2022-07-24T14:30:18;23.50;73.20
420;DHT22;42600;54.408;13.016;2022-07-24T14:32:45;23.50;73.30
420;DHT22;42600;54.408;13.016;2022-07-24T14:35:12;23.60;73.40
420;DHT22;42600;54.408;13.016;2022-07-24T14:37:38;23.60;73.70
420;DHT22;42600;54.408;13.016;2022-07-24T14:40:07;23.70;75.00
420;DHT22;42600;54.408;13.016;2022-07-24T14:42:35;23.80;72.60
420;DHT22;42600;54.408;13.016;2022-07-24T14:45:03;23.70;73.20
420;DHT22;42600;54.408;13.016;2022-07-24T14:47:32;23.70;72.90
420;DHT22;42600;54.408;13.016;2022-07-24T14:49:58;23.70;73.30
420;DHT22;42600;54.408;13.016;2022-07-24T14:52:25;23.70;72.90
420;DHT22;42600;54.408;13.016;2022-07-24T14:54:52;23.60;74.60
420;DHT22;42600;54.408;13.016;2022-07-24T14:57:19;23.60;74.60
420;DHT22;42600;54.408;13.016;2022-07-24T14:59:45;23.60;74.60
420;DHT22;42600;54.408;13.016;2022-07-24T15:02:12;23.60;75.20
420;DHT22;42600;54.408;13.016;2022-07-24T15:04:40;23.70;75.70
420;DHT22;42600;54.408;13.016;2022-07-24T15:07:07;23.70;76.10
420;DHT22;42600;54.408;13.016;2022-07-24T15:09:34;23.60;74.00
420;DHT22;42600;54.408;13.016;2022-07-24T15:12:01;23.60;73.90
420;DHT22;42600;54.408;13.016;2022-07-24T15:14:28;23.60;73.60
420;DHT22;42600;54.408;13.016;2022-07-24T15:16:55;23.80;74.50
420;DHT22;42600;54.408;13.016;2022-07-24T15:19:21;23.80;73.00
420;DHT22;42600;54.408;13.016;2022-07-24T15:21:49;23.90;71.60
420;DHT22;42600;54.408;13.016;2022-07-24T15:24:16;24.00;72.20
420;DHT22;42600;54.408;13.016;2022-07-24T15:26:43;24.00;72.40
420;DHT22;42600;54.408;13.016;2022-07-24T15:29:10;24.00;72.10
420;DHT22;42600;54.408;13.016;2022-07-24T15:31:36;24.00;73.50
420;DHT22;42600;54.408;13.016;2022-07-24T15:34:04;24.00;75.80
420;DHT22;42600;54.408;13.016;2022-07-24T15:36:31;24.00;74.80
420;DHT22;42600;54.408;13.016;2022-07-24T15:38:59;23.90;73.70
420;DHT22;42600;54.408;13.016;2022-07-24T15:41:26;24.00;73.60
420;DHT22;42600;54.408;13.016;2022-07-24T15:43:52;24.00;72.70
420;DHT22;42600;54.408;13.016;2022-07-24T15:46:19;24.00;74.70
420;DHT22;42600;54.408;13.016;2022-07-24T15:48:46;24.00;76.00
420;DHT22;42600;54.408;13.016;2022-07-24T15:51:12;24.00;76.80